UAL153 VHHH-KLAX
Flight info
| Callsign | UAL153 |
|---|---|
| Flight time | N/A |
| Altitude | 33000 |
| Route | DALOL V631 ENVAR M750 MUKEP Y891 OVSUN IGMIS Y57 POROT Y809 IDLAN ADNAP OTR7 EMRON 38N160E 38N180E 39N170W 40N160W 40N150W 39N140W 38N130W ALLBE BSR BURGL IRNMN2 |
| Aircraft | B789/H-VGDW/C |
Departure
| Time | 2026-05-04 06:13 |
|---|---|
| Airport | Hong Kong International Airport (VHHH) |
Arrival
| Time | N/A |
|---|---|
| Airport | Los Angeles International Airport (KLAX) |
| Time | Latitude | Longitude | Altitude | Speed | Heading |
|---|---|---|---|---|---|
| 2026-05-04 03:40 | 22.31328 | 113.92532 | 41 ft | 0 kts | 25° |
| 2026-05-04 05:57 | 22.31318 | 113.92528 | 41 ft | 4 kts | 23° |
| 2026-05-04 05:57 | 22.31293 | 113.92518 | 41 ft | 4 kts | 15° |
| 2026-05-04 05:58 | 22.31267 | 113.92511 | 41 ft | 4 kts | 8° |
| 2026-05-04 05:58 | 22.31240 | 113.92508 | 41 ft | 4 kts | 3° |
| 2026-05-04 05:58 | 22.31213 | 113.92507 | 41 ft | 4 kts | 2° |
| 2026-05-04 05:58 | 22.31186 | 113.92505 | 41 ft | 4 kts | 9° |
| 2026-05-04 05:59 | 22.31165 | 113.92499 | 41 ft | 0 kts | 26° |
| 2026-05-04 06:01 | 22.31165 | 113.92500 | 41 ft | 0 kts | 26° |
| 2026-05-04 06:03 | 22.31381 | 113.92194 | 41 ft | 17 kts | 296° |
| 2026-05-04 06:03 | 22.31436 | 113.92092 | 41 ft | 13 kts | 323° |
| 2026-05-04 06:05 | 22.31459 | 113.91510 | 41 ft | 20 kts | 251° |
| 2026-05-04 06:05 | 22.31362 | 113.91212 | 41 ft | 22 kts | 251° |
| 2026-05-04 06:05 | 22.31312 | 113.91055 | 41 ft | 22 kts | 251° |
| 2026-05-04 06:06 | 22.31259 | 113.90892 | 41 ft | 23 kts | 250° |
| 2026-05-04 06:06 | 22.31207 | 113.90729 | 41 ft | 24 kts | 251° |
| 2026-05-04 06:06 | 22.31153 | 113.90561 | 41 ft | 23 kts | 251° |
| 2026-05-04 06:06 | 22.31101 | 113.90399 | 41 ft | 22 kts | 250° |
| 2026-05-04 06:07 | 22.31050 | 113.90242 | 41 ft | 22 kts | 250° |
| 2026-05-04 06:07 | 22.31000 | 113.90090 | 41 ft | 21 kts | 250° |
| 2026-05-04 06:07 | 22.30951 | 113.89940 | 41 ft | 21 kts | 251° |
| 2026-05-04 06:07 | 22.30908 | 113.89805 | 41 ft | 14 kts | 250° |
| 2026-05-04 06:08 | 22.30897 | 113.89721 | 41 ft | 10 kts | 300° |
| 2026-05-04 06:08 | 22.30956 | 113.89687 | 41 ft | 10 kts | 340° |
| 2026-05-04 06:08 | 22.31023 | 113.89661 | 41 ft | 9 kts | 344° |
| 2026-05-04 06:08 | 22.31042 | 113.89670 | 41 ft | 2 kts | 54° |
| 2026-05-04 06:09 | 22.31054 | 113.89696 | 41 ft | 0 kts | 71° |
| 2026-05-04 06:11 | 22.31071 | 113.89751 | 41 ft | 28 kts | 70° |
| 2026-05-04 06:11 | 22.31228 | 113.90233 | 41 ft | 107 kts | 70° |
| 2026-05-04 06:13 | 22.33825 | 113.99573 | 3601 ft | 224 kts | 79° |
| 2026-05-04 06:14 | 22.30029 | 114.08281 | 6038 ft | 247 kts | 161° |
| 2026-05-04 06:14 | 22.28319 | 114.08574 | 6601 ft | 251 kts | 179° |
| 2026-05-04 06:15 | 22.26569 | 114.08617 | 7318 ft | 253 kts | 180° |
| 2026-05-04 06:15 | 22.24795 | 114.08633 | 7974 ft | 256 kts | 181° |
| 2026-05-04 06:15 | 22.22990 | 114.08635 | 8516 ft | 264 kts | 181° |
| 2026-05-04 06:15 | 22.21108 | 114.08629 | 8975 ft | 275 kts | 181° |
| 2026-05-04 06:16 | 22.19161 | 114.08620 | 9498 ft | 282 kts | 182° |
| 2026-05-04 06:16 | 22.17177 | 114.08690 | 10048 ft | 291 kts | 173° |
| 2026-05-04 06:16 | 22.15298 | 114.09570 | 10568 ft | 302 kts | 145° |
| 2026-05-04 06:16 | 22.13924 | 114.11332 | 10970 ft | 318 kts | 120° |
| 2026-05-04 06:17 | 22.13074 | 114.13604 | 11239 ft | 334 kts | 111° |
| 2026-05-04 06:17 | 22.12230 | 114.16000 | 11450 ft | 350 kts | 114° |
| 2026-05-04 06:17 | 22.11083 | 114.18366 | 11569 ft | 364 kts | 129° |
| 2026-05-04 06:17 | 22.09260 | 114.20314 | 11747 ft | 375 kts | 142° |
| 2026-05-04 06:18 | 22.07278 | 114.22205 | 12003 ft | 387 kts | 140° |
| 2026-05-04 06:18 | 22.05324 | 114.24252 | 12373 ft | 396 kts | 137° |
| 2026-05-04 06:18 | 22.03376 | 114.26459 | 12838 ft | 402 kts | 135° |
| 2026-05-04 06:20 | 21.88830 | 114.41073 | 16368 ft | 419 kts | 147° |
| 2026-05-04 06:20 | 21.86632 | 114.43176 | 16807 ft | 428 kts | 136° |
| 2026-05-04 06:21 | 21.81984 | 114.55233 | 18638 ft | 450 kts | 108° |
| 2026-05-04 06:21 | 21.81175 | 114.58499 | 19001 ft | 455 kts | 108° |
| 2026-05-04 06:22 | 21.80623 | 114.60682 | 19261 ft | 457 kts | 108° |
| 2026-05-04 06:22 | 21.79493 | 114.65064 | 19825 ft | 460 kts | 108° |
| 2026-05-04 06:25 | 21.74371 | 115.10151 | 24441 ft | 504 kts | 91° |
| 2026-05-04 06:25 | 21.74363 | 115.13940 | 24763 ft | 507 kts | 91° |
| 2026-05-04 06:26 | 21.74353 | 115.17755 | 25095 ft | 510 kts | 91° |
| 2026-05-04 06:26 | 21.74343 | 115.21574 | 25414 ft | 513 kts | 91° |
| 2026-05-04 06:26 | 21.74335 | 115.25424 | 25743 ft | 516 kts | 91° |
| 2026-05-04 06:26 | 21.74329 | 115.29306 | 26090 ft | 518 kts | 91° |
| 2026-05-04 06:27 | 21.74288 | 115.44918 | 27332 ft | 529 kts | 91° |
| 2026-05-04 06:28 | 21.74276 | 115.48928 | 27654 ft | 531 kts | 91° |
| 2026-05-04 06:28 | 21.74263 | 115.52859 | 27947 ft | 534 kts | 91° |
| 2026-05-04 06:28 | 21.74247 | 115.56860 | 28261 ft | 536 kts | 91° |
| 2026-05-04 06:28 | 21.74232 | 115.60881 | 28537 ft | 539 kts | 91° |
| 2026-05-04 06:29 | 21.74219 | 115.64923 | 28843 ft | 541 kts | 91° |
| 2026-05-04 06:29 | 21.74203 | 115.68971 | 29144 ft | 543 kts | 91° |
| 2026-05-04 06:29 | 21.74186 | 115.73075 | 29417 ft | 546 kts | 91° |
| 2026-05-04 06:29 | 21.74168 | 115.77170 | 29689 ft | 549 kts | 91° |
| 2026-05-04 06:30 | 21.74149 | 115.81285 | 29989 ft | 552 kts | 91° |
| 2026-05-04 06:30 | 21.74129 | 115.85417 | 30309 ft | 553 kts | 91° |
| 2026-05-04 06:30 | 21.74109 | 115.89563 | 30667 ft | 554 kts | 91° |
| 2026-05-04 06:30 | 21.74087 | 115.93707 | 31067 ft | 554 kts | 91° |
| 2026-05-04 06:31 | 21.74064 | 115.97842 | 31470 ft | 553 kts | 92° |
| 2026-05-04 06:31 | 21.74038 | 116.01974 | 31879 ft | 552 kts | 91° |
| 2026-05-04 06:31 | 21.74014 | 116.06102 | 32302 ft | 551 kts | 92° |
| 2026-05-04 06:31 | 21.73988 | 116.10208 | 32685 ft | 550 kts | 92° |
| 2026-05-04 06:32 | 21.73961 | 116.14321 | 32915 ft | 549 kts | 92° |
| 2026-05-04 06:33 | 21.73742 | 116.43143 | 33057 ft | 552 kts | 92° |
| 2026-05-04 06:34 | 21.73670 | 116.51394 | 33056 ft | 551 kts | 92° |
| 2026-05-04 06:34 | 21.73593 | 116.59656 | 33063 ft | 551 kts | 92° |
| 2026-05-04 06:36 | 21.78484 | 116.92018 | 33060 ft | 557 kts | 70° |
| 2026-05-04 06:37 | 21.81212 | 116.99828 | 33071 ft | 557 kts | 68° |
| 2026-05-04 06:37 | 21.84016 | 117.07585 | 33072 ft | 555 kts | 68° |
| 2026-05-04 06:38 | 21.86795 | 117.15293 | 33064 ft | 556 kts | 68° |
| 2026-05-04 06:40 | 21.97954 | 117.46343 | 33076 ft | 554 kts | 64° |
| 2026-05-04 06:40 | 22.01459 | 117.53679 | 33071 ft | 555 kts | 59° |
| 2026-05-04 06:41 | 22.05352 | 117.60868 | 33066 ft | 555 kts | 57° |
| 2026-05-04 06:41 | 22.09374 | 117.67957 | 33077 ft | 553 kts | 57° |
| 2026-05-04 06:42 | 22.13405 | 117.75048 | 33071 ft | 554 kts | 57° |
| 2026-05-04 06:44 | 22.29489 | 118.03455 | 33047 ft | 560 kts | 56° |
| 2026-05-04 06:44 | 22.33638 | 118.10570 | 33038 ft | 560 kts | 56° |
| 2026-05-04 06:45 | 22.37800 | 118.17682 | 33052 ft | 560 kts | 56° |
| 2026-05-04 06:45 | 22.41928 | 118.24834 | 33037 ft | 561 kts | 57° |
| 2026-05-04 06:46 | 22.46004 | 118.32037 | 33040 ft | 562 kts | 57° |
| 2026-05-04 06:46 | 22.50083 | 118.39263 | 33043 ft | 562 kts | 57° |
| 2026-05-04 06:48 | 22.66469 | 118.68121 | 33020 ft | 565 kts | 57° |
| 2026-05-04 06:50 | 22.82946 | 118.97181 | 33027 ft | 566 kts | 57° |
| 2026-05-04 06:51 | 22.87079 | 119.04495 | 33018 ft | 567 kts | 57° |
| 2026-05-04 06:51 | 22.91200 | 119.11793 | 33016 ft | 567 kts | 57° |
| 2026-05-04 06:52 | 22.95299 | 119.19062 | 33028 ft | 567 kts | 57° |
| 2026-05-04 06:52 | 22.99412 | 119.26372 | 33016 ft | 568 kts | 57° |
| 2026-05-04 06:53 | 23.03529 | 119.33706 | 33025 ft | 568 kts | 57° |
| 2026-05-04 06:53 | 23.07642 | 119.41037 | 33018 ft | 570 kts | 57° |
| 2026-05-04 06:54 | 23.11766 | 119.48397 | 33016 ft | 569 kts | 57° |
| 2026-05-04 06:54 | 23.15887 | 119.55763 | 33026 ft | 571 kts | 57° |
| 2026-05-04 06:55 | 23.20011 | 119.63132 | 33013 ft | 571 kts | 57° |
| 2026-05-04 06:55 | 23.24141 | 119.70524 | 33014 ft | 571 kts | 57° |
| 2026-05-04 06:57 | 23.42566 | 119.98542 | 33011 ft | 570 kts | 43° |
| 2026-05-04 06:58 | 23.48179 | 120.04576 | 33013 ft | 570 kts | 41° |
| 2026-05-04 06:58 | 23.53930 | 120.10532 | 33022 ft | 571 kts | 40° |
| 2026-05-04 06:59 | 23.59707 | 120.16481 | 33011 ft | 570 kts | 40° |
| 2026-05-04 06:59 | 23.65474 | 120.22440 | 33022 ft | 570 kts | 40° |
| 2026-05-04 07:01 | 23.88451 | 120.46304 | 33033 ft | 571 kts | 41° |
| 2026-05-04 07:02 | 23.94194 | 120.52320 | 33023 ft | 570 kts | 41° |
| 2026-05-04 07:02 | 23.99904 | 120.58341 | 33034 ft | 571 kts | 41° |
| 2026-05-04 07:03 | 24.05629 | 120.64398 | 33025 ft | 572 kts | 41° |
| 2026-05-04 07:03 | 24.11351 | 120.70457 | 33021 ft | 572 kts | 41° |
| 2026-05-04 07:04 | 24.17076 | 120.76520 | 33032 ft | 572 kts | 41° |
| 2026-05-04 07:04 | 24.22762 | 120.82546 | 33020 ft | 572 kts | 41° |
| 2026-05-04 07:05 | 24.28513 | 120.88649 | 33028 ft | 572 kts | 41° |
| 2026-05-04 07:05 | 24.34202 | 120.94696 | 33036 ft | 572 kts | 41° |
| 2026-05-04 07:06 | 24.42633 | 121.03996 | 33035 ft | 574 kts | 47° |
| 2026-05-04 07:07 | 24.47681 | 121.10815 | 33042 ft | 575 kts | 50° |
| 2026-05-04 07:09 | 24.66667 | 121.37278 | 33059 ft | 575 kts | 50° |
| 2026-05-04 07:09 | 24.71653 | 121.44187 | 33062 ft | 575 kts | 50° |
| 2026-05-04 07:10 | 24.76622 | 121.51085 | 33073 ft | 575 kts | 50° |
| 2026-05-04 07:12 | 24.96843 | 121.78315 | 33076 ft | 574 kts | 46° |
| 2026-05-04 07:12 | 25.02088 | 121.84978 | 33086 ft | 576 kts | 46° |
| 2026-05-04 07:13 | 25.07330 | 121.91672 | 33074 ft | 575 kts | 47° |
| 2026-05-04 07:13 | 25.12558 | 121.98359 | 33080 ft | 576 kts | 47° |
| 2026-05-04 07:14 | 25.25489 | 122.15110 | 33081 ft | 575 kts | 47° |
| 2026-05-04 07:15 | 25.30678 | 122.21855 | 33093 ft | 575 kts | 47° |
| 2026-05-04 07:15 | 25.35858 | 122.28599 | 33082 ft | 575 kts | 47° |
| 2026-05-04 07:16 | 25.41037 | 122.35351 | 33088 ft | 575 kts | 47° |
| 2026-05-04 07:16 | 25.46214 | 122.42108 | 33090 ft | 576 kts | 47° |
| 2026-05-04 07:17 | 25.51390 | 122.48868 | 33081 ft | 575 kts | 47° |
| 2026-05-04 07:17 | 25.56551 | 122.55583 | 33093 ft | 576 kts | 47° |
| 2026-05-04 07:18 | 25.61746 | 122.62337 | 33086 ft | 575 kts | 47° |
| 2026-05-04 07:18 | 25.66939 | 122.69092 | 33086 ft | 575 kts | 47° |
| 2026-05-04 07:19 | 25.72128 | 122.75857 | 33095 ft | 575 kts | 47° |
| 2026-05-04 07:19 | 25.77308 | 122.82627 | 33084 ft | 574 kts | 47° |
| 2026-05-04 07:20 | 25.82472 | 122.89389 | 33090 ft | 574 kts | 47° |
| 2026-05-04 07:20 | 25.87635 | 122.96157 | 33093 ft | 574 kts | 47° |
| 2026-05-04 07:22 | 26.05723 | 123.19948 | 34957 ft | 579 kts | 46° |
| 2026-05-04 07:22 | 26.08316 | 123.23368 | 35055 ft | 577 kts | 46° |
| 2026-05-04 07:23 | 26.13481 | 123.30191 | 35063 ft | 574 kts | 46° |
| 2026-05-04 07:23 | 26.18622 | 123.36996 | 35079 ft | 574 kts | 46° |
| 2026-05-04 07:24 | 26.23751 | 123.43797 | 35074 ft | 573 kts | 46° |
| 2026-05-04 07:24 | 26.28836 | 123.50550 | 35077 ft | 573 kts | 46° |
| 2026-05-04 07:26 | 26.49297 | 123.77807 | 35082 ft | 573 kts | 46° |
| 2026-05-04 07:27 | 26.54412 | 123.84647 | 35073 ft | 573 kts | 46° |
| 2026-05-04 07:27 | 26.59518 | 123.91484 | 35086 ft | 573 kts | 46° |
| 2026-05-04 07:28 | 26.64637 | 123.98340 | 35078 ft | 574 kts | 46° |
| 2026-05-04 07:28 | 26.69749 | 124.05177 | 35074 ft | 573 kts | 46° |
| 2026-05-04 07:29 | 26.74863 | 124.12021 | 35088 ft | 574 kts | 47° |
| 2026-05-04 07:29 | 26.79977 | 124.18884 | 35075 ft | 575 kts | 46° |
| 2026-05-04 07:30 | 26.85099 | 124.25763 | 35063 ft | 575 kts | 47° |
| 2026-05-04 07:30 | 26.90212 | 124.32641 | 35073 ft | 576 kts | 47° |
| 2026-05-04 07:31 | 26.95343 | 124.39547 | 35073 ft | 576 kts | 47° |
| 2026-05-04 07:33 | 27.15855 | 124.67271 | 35061 ft | 577 kts | 47° |
| 2026-05-04 07:33 | 27.20957 | 124.74186 | 35073 ft | 578 kts | 47° |
| 2026-05-04 07:34 | 27.26086 | 124.81154 | 35064 ft | 578 kts | 47° |
| 2026-05-04 07:34 | 27.31203 | 124.88119 | 35066 ft | 578 kts | 47° |
| 2026-05-04 07:35 | 27.36327 | 124.95104 | 35074 ft | 579 kts | 47° |
| 2026-05-04 07:35 | 27.41471 | 125.02093 | 35062 ft | 579 kts | 47° |
| 2026-05-04 07:36 | 27.46597 | 125.09015 | 35072 ft | 579 kts | 47° |
| 2026-05-04 07:38 | 27.67253 | 125.36977 | 35088 ft | 580 kts | 47° |
| 2026-05-04 07:38 | 27.72386 | 125.43954 | 35088 ft | 582 kts | 47° |
| 2026-05-04 07:39 | 27.77556 | 125.50994 | 35097 ft | 581 kts | 47° |
| 2026-05-04 07:39 | 27.82722 | 125.58040 | 35088 ft | 582 kts | 47° |
| 2026-05-04 07:40 | 27.87889 | 125.65099 | 35094 ft | 582 kts | 47° |
| 2026-05-04 07:40 | 27.93049 | 125.72160 | 35095 ft | 582 kts | 47° |
| 2026-05-04 07:41 | 27.98234 | 125.79266 | 35088 ft | 584 kts | 47° |
| 2026-05-04 07:41 | 28.03393 | 125.86351 | 35102 ft | 584 kts | 47° |
| 2026-05-04 07:42 | 28.08522 | 125.93404 | 35089 ft | 584 kts | 47° |
| 2026-05-04 07:42 | 28.13688 | 126.00519 | 35094 ft | 584 kts | 48° |
| 2026-05-04 07:43 | 28.18836 | 126.07624 | 35098 ft | 583 kts | 47° |
| 2026-05-04 07:43 | 28.23991 | 126.14748 | 35087 ft | 585 kts | 48° |
| 2026-05-04 07:44 | 28.29148 | 126.21889 | 35099 ft | 585 kts | 48° |
| 2026-05-04 07:44 | 28.34303 | 126.29039 | 35089 ft | 585 kts | 48° |
| 2026-05-04 07:45 | 28.39463 | 126.36208 | 35092 ft | 586 kts | 48° |
| 2026-05-04 07:45 | 28.44618 | 126.43381 | 35099 ft | 587 kts | 48° |
| 2026-05-04 07:46 | 28.49777 | 126.50573 | 35094 ft | 587 kts | 48° |
| 2026-05-04 07:46 | 28.54941 | 126.57784 | 35111 ft | 588 kts | 48° |
| 2026-05-04 07:47 | 28.60091 | 126.64988 | 35107 ft | 589 kts | 48° |
| 2026-05-04 07:49 | 28.80756 | 126.94013 | 35106 ft | 591 kts | 48° |
| 2026-05-04 07:49 | 28.85925 | 127.01307 | 35087 ft | 591 kts | 48° |
| 2026-05-04 07:50 | 28.91090 | 127.08609 | 35082 ft | 592 kts | 48° |
| 2026-05-04 07:50 | 28.96263 | 127.15933 | 35093 ft | 592 kts | 48° |
| 2026-05-04 07:51 | 29.01404 | 127.23224 | 35082 ft | 592 kts | 48° |
| 2026-05-04 07:51 | 29.06575 | 127.30572 | 35088 ft | 593 kts | 48° |
| 2026-05-04 07:52 | 29.10873 | 127.36691 | 35091 ft | 593 kts | 48° |
| 2026-05-04 07:52 | 29.16045 | 127.44067 | 35078 ft | 594 kts | 48° |
| 2026-05-04 07:54 | 29.36728 | 127.73686 | 35090 ft | 597 kts | 48° |
| 2026-05-04 07:55 | 29.41911 | 127.81135 | 35087 ft | 598 kts | 48° |
| 2026-05-04 07:55 | 29.47096 | 127.88602 | 35073 ft | 597 kts | 49° |
| 2026-05-04 07:56 | 29.52248 | 127.96039 | 35078 ft | 599 kts | 49° |
| 2026-05-04 07:56 | 29.57435 | 128.03534 | 35080 ft | 598 kts | 49° |
| 2026-05-04 07:57 | 29.62609 | 128.11023 | 35070 ft | 599 kts | 49° |
| 2026-05-04 07:57 | 29.67783 | 128.18526 | 35081 ft | 599 kts | 49° |
| 2026-05-04 07:58 | 29.72953 | 128.26036 | 35071 ft | 599 kts | 49° |
| 2026-05-04 07:58 | 29.78083 | 128.33503 | 35071 ft | 598 kts | 49° |
| 2026-05-04 07:59 | 29.83244 | 128.41028 | 35079 ft | 599 kts | 49° |
| 2026-05-04 07:59 | 29.88393 | 128.48557 | 35065 ft | 597 kts | 49° |
| 2026-05-04 08:00 | 29.93542 | 128.56097 | 35075 ft | 598 kts | 49° |
| 2026-05-04 08:02 | 30.14272 | 128.86572 | 35059 ft | 609 kts | 49° |
| 2026-05-04 08:02 | 30.19490 | 128.94282 | 35064 ft | 609 kts | 49° |
| 2026-05-04 08:03 | 30.24703 | 129.01999 | 35067 ft | 609 kts | 49° |
| 2026-05-04 08:03 | 30.29915 | 129.09731 | 35057 ft | 607 kts | 49° |
| 2026-05-04 08:04 | 30.35116 | 129.17461 | 35068 ft | 608 kts | 50° |
| 2026-05-04 08:04 | 30.40277 | 129.25148 | 35061 ft | 607 kts | 50° |
| 2026-05-04 08:05 | 30.45469 | 129.32898 | 35058 ft | 607 kts | 50° |
| 2026-05-04 08:05 | 30.50649 | 129.40644 | 35068 ft | 607 kts | 50° |
| 2026-05-04 08:06 | 30.55788 | 129.48335 | 35056 ft | 606 kts | 50° |
| 2026-05-04 08:06 | 30.60958 | 129.56085 | 35049 ft | 607 kts | 50° |
| 2026-05-04 08:08 | 30.81602 | 129.87236 | 35053 ft | 609 kts | 50° |
| 2026-05-04 08:11 | 31.02043 | 130.24701 | 35036 ft | 610 kts | 57° |
| 2026-05-04 08:11 | 31.08697 | 130.37291 | 35048 ft | 610 kts | 57° |
| 2026-05-04 08:12 | 31.13148 | 130.45743 | 35036 ft | 610 kts | 57° |
| 2026-05-04 08:12 | 31.17553 | 130.54129 | 35040 ft | 610 kts | 57° |
| 2026-05-04 08:13 | 31.21990 | 130.62594 | 35042 ft | 611 kts | 57° |
| 2026-05-04 08:13 | 31.26416 | 130.71057 | 35030 ft | 610 kts | 57° |
| 2026-05-04 08:14 | 31.30832 | 130.79519 | 35023 ft | 610 kts | 57° |
| 2026-05-04 08:16 | 31.48476 | 131.13488 | 34997 ft | 609 kts | 58° |
| 2026-05-04 08:16 | 31.52867 | 131.21992 | 34997 ft | 610 kts | 58° |
| 2026-05-04 08:17 | 31.57220 | 131.30443 | 34986 ft | 610 kts | 58° |
| 2026-05-04 08:17 | 31.61597 | 131.38969 | 34975 ft | 610 kts | 58° |
| 2026-05-04 08:19 | 31.79081 | 131.73223 | 34993 ft | 611 kts | 58° |
| 2026-05-04 08:20 | 31.83444 | 131.81818 | 35005 ft | 612 kts | 58° |
| 2026-05-04 08:20 | 31.87804 | 131.90429 | 34999 ft | 612 kts | 59° |
| 2026-05-04 08:21 | 31.92156 | 131.99040 | 34996 ft | 612 kts | 59° |
| 2026-05-04 08:21 | 31.96499 | 132.07654 | 35011 ft | 612 kts | 59° |
| 2026-05-04 08:22 | 32.00840 | 132.16285 | 34996 ft | 612 kts | 59° |
| 2026-05-04 08:24 | 32.17544 | 132.51289 | 34989 ft | 613 kts | 64° |
| 2026-05-04 08:24 | 32.21315 | 132.60333 | 35001 ft | 613 kts | 64° |
| 2026-05-04 08:25 | 32.25117 | 132.69374 | 34990 ft | 614 kts | 64° |
| 2026-05-04 08:25 | 32.28941 | 132.78413 | 34975 ft | 614 kts | 64° |
| 2026-05-04 08:27 | 32.44105 | 133.14617 | 34973 ft | 613 kts | 64° |
| 2026-05-04 08:28 | 32.47853 | 133.23631 | 34967 ft | 613 kts | 64° |
| 2026-05-04 08:28 | 32.51612 | 133.32684 | 34959 ft | 612 kts | 64° |
| 2026-05-04 08:29 | 32.55362 | 133.41741 | 34969 ft | 611 kts | 64° |
| 2026-05-04 08:31 | 32.70290 | 133.78016 | 34945 ft | 612 kts | 65° |
| 2026-05-04 08:33 | 32.84264 | 134.14738 | 34935 ft | 609 kts | 76° |
| 2026-05-04 08:35 | 32.93704 | 134.53465 | 34911 ft | 610 kts | 76° |
| 2026-05-04 08:35 | 32.96091 | 134.63155 | 34911 ft | 610 kts | 76° |
| 2026-05-04 08:37 | 33.01458 | 134.90948 | 34884 ft | 605 kts | 88° |
| 2026-05-04 08:37 | 33.01929 | 134.95918 | 34881 ft | 604 kts | 88° |
| 2026-05-04 08:38 | 33.02895 | 135.05881 | 34895 ft | 605 kts | 88° |
| 2026-05-04 08:38 | 33.03942 | 135.15762 | 34885 ft | 604 kts | 86° |
| 2026-05-04 08:40 | 33.08184 | 135.55549 | 34879 ft | 604 kts | 86° |
| 2026-05-04 08:41 | 33.09213 | 135.65514 | 34882 ft | 605 kts | 86° |
| 2026-05-04 08:41 | 33.10230 | 135.75397 | 34870 ft | 603 kts | 86° |
| 2026-05-04 08:42 | 33.11244 | 135.85337 | 34880 ft | 603 kts | 86° |
| 2026-05-04 08:42 | 33.12248 | 135.95281 | 34877 ft | 604 kts | 87° |
| 2026-05-04 08:43 | 33.13243 | 136.05230 | 34871 ft | 600 kts | 87° |
| 2026-05-04 08:43 | 33.14215 | 136.15059 | 34881 ft | 601 kts | 87° |
| 2026-05-04 08:44 | 33.15188 | 136.24966 | 34873 ft | 601 kts | 87° |
| 2026-05-04 08:46 | 33.19009 | 136.64535 | 34873 ft | 600 kts | 87° |
| 2026-05-04 08:46 | 33.19943 | 136.74432 | 34876 ft | 598 kts | 87° |
| 2026-05-04 08:47 | 33.20865 | 136.84304 | 34861 ft | 598 kts | 87° |
| 2026-05-04 08:47 | 33.21781 | 136.94173 | 34833 ft | 597 kts | 87° |
| 2026-05-04 08:48 | 33.22771 | 137.04044 | 34800 ft | 600 kts | 83° |
| 2026-05-04 08:48 | 33.24464 | 137.13761 | 34784 ft | 602 kts | 79° |
| 2026-05-04 08:49 | 33.26626 | 137.23438 | 34771 ft | 603 kts | 76° |
| 2026-05-04 08:50 | 33.35041 | 137.57187 | 34761 ft | 606 kts | 75° |
| 2026-05-04 08:51 | 33.37429 | 137.66878 | 34765 ft | 607 kts | 76° |
| 2026-05-04 08:51 | 33.39786 | 137.76497 | 34752 ft | 607 kts | 76° |
| 2026-05-04 08:52 | 33.42450 | 137.86106 | 34759 ft | 609 kts | 69° |
| 2026-05-04 08:52 | 33.45966 | 137.95348 | 34750 ft | 610 kts | 64° |
| 2026-05-04 08:54 | 33.63380 | 138.30205 | 34702 ft | 610 kts | 57° |
| 2026-05-04 08:55 | 33.67813 | 138.38895 | 34679 ft | 610 kts | 58° |
| 2026-05-04 08:55 | 33.72223 | 138.47573 | 34666 ft | 609 kts | 58° |
| 2026-05-04 09:01 | 34.17861 | 139.38573 | 34654 ft | 603 kts | 60° |
| 2026-05-04 09:01 | 34.22163 | 139.47264 | 34631 ft | 601 kts | 60° |
| 2026-05-04 09:02 | 34.26439 | 139.55925 | 34622 ft | 599 kts | 60° |
| 2026-05-04 09:02 | 34.30691 | 139.64562 | 34634 ft | 599 kts | 60° |
| 2026-05-04 09:03 | 34.34952 | 139.73231 | 34624 ft | 599 kts | 60° |
| 2026-05-04 09:03 | 34.39206 | 139.81912 | 34618 ft | 599 kts | 60° |
| 2026-05-04 09:04 | 34.43448 | 139.90588 | 34625 ft | 599 kts | 60° |
| 2026-05-04 09:04 | 34.47687 | 139.99280 | 34633 ft | 599 kts | 60° |
| 2026-05-04 09:05 | 34.51882 | 140.07899 | 34621 ft | 596 kts | 60° |
| 2026-05-04 09:05 | 34.56102 | 140.16598 | 34618 ft | 598 kts | 60° |
| 2026-05-04 09:06 | 34.60321 | 140.25313 | 34619 ft | 599 kts | 60° |
| 2026-05-04 09:08 | 34.76930 | 140.60437 | 34574 ft | 601 kts | 62° |
| 2026-05-04 09:08 | 34.80998 | 140.69319 | 34567 ft | 601 kts | 62° |
| 2026-05-04 09:09 | 34.85077 | 140.78231 | 34580 ft | 602 kts | 62° |
| 2026-05-04 09:09 | 34.89196 | 140.87246 | 34587 ft | 614 kts | 62° |
| 2026-05-04 09:10 | 34.93341 | 140.96348 | 34585 ft | 614 kts | 62° |
| 2026-05-04 09:10 | 34.97452 | 141.05399 | 34575 ft | 614 kts | 62° |
| 2026-05-04 09:11 | 35.01583 | 141.14518 | 34583 ft | 614 kts | 63° |
| 2026-05-04 09:11 | 35.05709 | 141.23646 | 34574 ft | 614 kts | 63° |
| 2026-05-04 09:12 | 35.09829 | 141.32791 | 34571 ft | 614 kts | 63° |
| 2026-05-04 09:14 | 35.26232 | 141.69437 | 34575 ft | 616 kts | 63° |
| 2026-05-04 09:14 | 35.30325 | 141.78642 | 34565 ft | 616 kts | 64° |
| 2026-05-04 09:15 | 35.34415 | 141.87869 | 34576 ft | 616 kts | 64° |
| 2026-05-04 09:15 | 35.38499 | 141.97103 | 34570 ft | 617 kts | 64° |
| 2026-05-04 09:17 | 35.56723 | 142.38627 | 34575 ft | 614 kts | 64° |
| 2026-05-04 09:18 | 35.60763 | 142.47899 | 34552 ft | 614 kts | 64° |
| 2026-05-04 09:18 | 35.64778 | 142.57148 | 34538 ft | 614 kts | 64° |
| 2026-05-04 09:19 | 35.68763 | 142.66349 | 34523 ft | 613 kts | 64° |
| 2026-05-04 09:19 | 35.72756 | 142.75593 | 34506 ft | 611 kts | 64° |
| 2026-05-04 09:20 | 35.76738 | 142.84833 | 34508 ft | 610 kts | 64° |
| 2026-05-04 09:20 | 35.80712 | 142.94086 | 34516 ft | 609 kts | 64° |
| 2026-05-04 09:21 | 35.84662 | 143.03304 | 34537 ft | 608 kts | 65° |
| 2026-05-04 09:21 | 35.88599 | 143.12525 | 34549 ft | 607 kts | 65° |
| 2026-05-04 09:22 | 35.91923 | 143.22019 | 34538 ft | 599 kts | 78° |
| 2026-05-04 09:22 | 35.93786 | 143.31981 | 34546 ft | 594 kts | 85° |
| 2026-05-04 09:23 | 35.95001 | 143.41964 | 34534 ft | 590 kts | 89° |
| 2026-05-04 09:23 | 35.96017 | 143.52027 | 34546 ft | 589 kts | 88° |
| 2026-05-04 09:25 | 35.99865 | 143.90498 | 34538 ft | 589 kts | 89° |
| 2026-05-04 09:26 | 36.00940 | 144.00547 | 34515 ft | 593 kts | 83° |
| 2026-05-04 09:26 | 36.02110 | 144.05463 | 34522 ft | 601 kts | 72° |
| 2026-05-04 09:26 | 36.03943 | 144.10123 | 34534 ft | 606 kts | 61° |
| 2026-05-04 09:27 | 36.08948 | 144.18459 | 34557 ft | 609 kts | 49° |
| 2026-05-04 09:27 | 36.14703 | 144.26141 | 34533 ft | 609 kts | 45° |
| 2026-05-04 09:28 | 36.20606 | 144.33693 | 34535 ft | 609 kts | 45° |
| 2026-05-04 09:28 | 36.26456 | 144.41296 | 34540 ft | 610 kts | 46° |
| 2026-05-04 09:29 | 36.32282 | 144.48972 | 34528 ft | 610 kts | 46° |
| 2026-05-04 09:29 | 36.38074 | 144.56674 | 34538 ft | 610 kts | 47° |
| 2026-05-04 09:30 | 36.43868 | 144.64389 | 34533 ft | 610 kts | 47° |
| 2026-05-04 09:30 | 36.49673 | 144.72101 | 34527 ft | 610 kts | 46° |
| 2026-05-04 09:31 | 36.55473 | 144.79817 | 34537 ft | 610 kts | 47° |
| 2026-05-04 09:31 | 36.61266 | 144.87542 | 34525 ft | 610 kts | 47° |
| 2026-05-04 09:32 | 36.67050 | 144.95278 | 34530 ft | 610 kts | 46° |
| 2026-05-04 09:34 | 36.89585 | 145.25591 | 34555 ft | 610 kts | 47° |
| 2026-05-04 09:34 | 36.95349 | 145.33395 | 34568 ft | 610 kts | 47° |
| 2026-05-04 09:35 | 37.01077 | 145.41164 | 34563 ft | 610 kts | 47° |
| 2026-05-04 09:35 | 37.06840 | 145.48997 | 34558 ft | 610 kts | 47° |
| 2026-05-04 09:37 | 37.22556 | 145.79964 | 34559 ft | 605 kts | 75° |
| 2026-05-04 09:37 | 37.23868 | 145.84962 | 34559 ft | 603 kts | 77° |
| 2026-05-04 09:38 | 37.26190 | 145.94999 | 34570 ft | 602 kts | 79° |
| 2026-05-04 09:38 | 37.28434 | 146.05116 | 34569 ft | 599 kts | 78° |
| 2026-05-04 09:39 | 37.30714 | 146.15187 | 34559 ft | 599 kts | 78° |
| 2026-05-04 09:39 | 37.32996 | 146.25266 | 34573 ft | 599 kts | 78° |
| 2026-05-04 09:40 | 37.35262 | 146.35330 | 34569 ft | 598 kts | 78° |
| 2026-05-04 09:40 | 37.37515 | 146.45399 | 34566 ft | 598 kts | 78° |
| 2026-05-04 09:42 | 37.46414 | 146.85629 | 34604 ft | 596 kts | 78° |
| 2026-05-04 09:43 | 37.48615 | 146.95693 | 34616 ft | 595 kts | 78° |
| 2026-05-04 09:43 | 37.50806 | 147.05744 | 34610 ft | 594 kts | 78° |
| 2026-05-04 09:44 | 37.52970 | 147.15724 | 34607 ft | 594 kts | 78° |
| 2026-05-04 09:46 | 37.61595 | 147.55942 | 34534 ft | 592 kts | 78° |
| 2026-05-04 09:46 | 37.63714 | 147.65927 | 34538 ft | 593 kts | 78° |
| 2026-05-04 09:47 | 37.65837 | 147.75991 | 34526 ft | 593 kts | 78° |
| 2026-05-04 09:49 | 37.74218 | 148.16166 | 34536 ft | 591 kts | 78° |
| 2026-05-04 09:51 | 37.81442 | 148.51382 | 34523 ft | 590 kts | 78° |
| 2026-05-04 09:51 | 37.83482 | 148.61443 | 34512 ft | 591 kts | 78° |
| 2026-05-04 09:52 | 37.85517 | 148.71523 | 34524 ft | 590 kts | 78° |
| 2026-05-04 09:52 | 37.87539 | 148.81590 | 34515 ft | 589 kts | 78° |
| 2026-05-04 09:53 | 37.89539 | 148.91585 | 34514 ft | 589 kts | 78° |
| 2026-05-04 09:53 | 37.91542 | 149.01653 | 34523 ft | 589 kts | 78° |
| 2026-05-04 09:54 | 37.93538 | 149.11738 | 34510 ft | 589 kts | 78° |
| 2026-05-04 09:54 | 37.95525 | 149.21820 | 34518 ft | 590 kts | 78° |
| 2026-05-04 09:55 | 37.97505 | 149.31915 | 34517 ft | 590 kts | 78° |
| 2026-05-04 09:55 | 37.99467 | 149.41965 | 34508 ft | 590 kts | 78° |
| 2026-05-04 09:56 | 38.01436 | 149.52105 | 34520 ft | 595 kts | 78° |
| 2026-05-04 09:56 | 38.03406 | 149.62300 | 34510 ft | 593 kts | 78° |
| 2026-05-04 09:57 | 38.05354 | 149.72413 | 34513 ft | 593 kts | 78° |
| 2026-05-04 09:57 | 38.07304 | 149.82601 | 34520 ft | 592 kts | 78° |
| 2026-05-04 09:58 | 38.09235 | 149.92755 | 34507 ft | 592 kts | 78° |
| 2026-05-04 09:58 | 38.10584 | 150.03047 | 34523 ft | 589 kts | 88° |
| 2026-05-04 10:00 | 38.11888 | 150.44401 | 34512 ft | 586 kts | 91° |
| 2026-05-04 10:04 | 38.13742 | 151.16677 | 34526 ft | 583 kts | 91° |
| 2026-05-04 10:04 | 38.13961 | 151.26904 | 34516 ft | 582 kts | 91° |
| 2026-05-04 10:05 | 38.14175 | 151.37179 | 34524 ft | 581 kts | 91° |
| 2026-05-04 10:05 | 38.14377 | 151.47441 | 34526 ft | 580 kts | 91° |
| 2026-05-04 10:06 | 38.14571 | 151.57696 | 34517 ft | 580 kts | 91° |
| 2026-05-04 10:06 | 38.14754 | 151.67882 | 34530 ft | 579 kts | 91° |
| 2026-05-04 10:08 | 38.15304 | 152.01995 | 34531 ft | 578 kts | 91° |
| 2026-05-04 10:08 | 38.15449 | 152.12157 | 34523 ft | 578 kts | 91° |
| 2026-05-04 10:09 | 38.15586 | 152.22384 | 34538 ft | 578 kts | 91° |
| 2026-05-04 10:09 | 38.15713 | 152.32595 | 34551 ft | 579 kts | 91° |
| 2026-05-04 10:10 | 38.15833 | 152.42820 | 34544 ft | 578 kts | 91° |
| 2026-05-04 10:10 | 38.15944 | 152.53048 | 34547 ft | 578 kts | 91° |
| 2026-05-04 10:11 | 38.16045 | 152.63276 | 34555 ft | 578 kts | 91° |
| 2026-05-04 10:11 | 38.16137 | 152.73421 | 34544 ft | 577 kts | 91° |
| 2026-05-04 10:12 | 38.16221 | 152.83632 | 34554 ft | 577 kts | 91° |
| 2026-05-04 10:12 | 38.16296 | 152.93842 | 34555 ft | 577 kts | 91° |
| 2026-05-04 10:13 | 38.16361 | 153.04039 | 34548 ft | 576 kts | 91° |
| 2026-05-04 10:13 | 38.16417 | 153.14219 | 34561 ft | 575 kts | 91° |
| 2026-05-04 10:14 | 38.16465 | 153.24346 | 34554 ft | 575 kts | 91° |
| 2026-05-04 10:16 | 38.16571 | 153.64875 | 34563 ft | 573 kts | 91° |
| 2026-05-04 10:16 | 38.16576 | 153.74978 | 34567 ft | 572 kts | 91° |
| 2026-05-04 10:17 | 38.16573 | 153.85096 | 34558 ft | 572 kts | 91° |
| 2026-05-04 10:19 | 38.16471 | 154.25508 | 34577 ft | 571 kts | 91° |
| 2026-05-04 10:19 | 38.16423 | 154.35573 | 34567 ft | 572 kts | 92° |
| 2026-05-04 10:20 | 38.16362 | 154.45684 | 34576 ft | 572 kts | 92° |
| 2026-05-04 10:20 | 38.16297 | 154.55795 | 34579 ft | 573 kts | 91° |
| 2026-05-04 10:21 | 38.16225 | 154.65940 | 34569 ft | 573 kts | 92° |
| 2026-05-04 10:21 | 38.16143 | 154.76069 | 34581 ft | 573 kts | 92° |
| 2026-05-04 10:22 | 38.16002 | 154.91272 | 34575 ft | 573 kts | 92° |
| 2026-05-04 10:23 | 38.15901 | 155.01410 | 34583 ft | 573 kts | 92° |
| 2026-05-04 10:25 | 38.15390 | 155.41866 | 34565 ft | 572 kts | 92° |
| 2026-05-04 10:25 | 38.15242 | 155.51971 | 34573 ft | 571 kts | 92° |
| 2026-05-04 10:26 | 38.15089 | 155.62019 | 34578 ft | 572 kts | 92° |
| 2026-05-04 10:26 | 38.14932 | 155.72122 | 34569 ft | 572 kts | 92° |
| 2026-05-04 10:27 | 38.14762 | 155.82220 | 34584 ft | 571 kts | 92° |
| 2026-05-04 10:27 | 38.14577 | 155.92316 | 34577 ft | 571 kts | 92° |
| 2026-05-04 10:28 | 38.14385 | 156.02340 | 34578 ft | 571 kts | 92° |
| 2026-05-04 10:28 | 38.14186 | 156.12432 | 34588 ft | 571 kts | 92° |
| 2026-05-04 10:29 | 38.13979 | 156.22503 | 34577 ft | 571 kts | 92° |
| 2026-05-04 10:29 | 38.13763 | 156.32581 | 34587 ft | 572 kts | 92° |
| 2026-05-04 10:30 | 38.13539 | 156.42690 | 34590 ft | 572 kts | 92° |
| 2026-05-04 10:30 | 38.13311 | 156.52792 | 34582 ft | 572 kts | 92° |
| 2026-05-04 10:31 | 38.13068 | 156.62892 | 34595 ft | 573 kts | 92° |
| 2026-05-04 10:32 | 38.12148 | 156.98329 | 34599 ft | 574 kts | 92° |
| 2026-05-04 10:33 | 38.11866 | 157.08468 | 34594 ft | 574 kts | 92° |
| 2026-05-04 10:33 | 38.11573 | 157.18533 | 34604 ft | 574 kts | 92° |
| 2026-05-04 10:34 | 38.11270 | 157.28733 | 34601 ft | 573 kts | 92° |
| 2026-05-04 10:34 | 38.10967 | 157.38776 | 34599 ft | 573 kts | 92° |
| 2026-05-04 10:35 | 38.10654 | 157.48888 | 34613 ft | 573 kts | 92° |
| 2026-05-04 10:35 | 38.10327 | 157.58995 | 34600 ft | 572 kts | 92° |
| 2026-05-04 10:36 | 38.09994 | 157.69079 | 34609 ft | 572 kts | 92° |
| 2026-05-04 10:36 | 38.09652 | 157.79173 | 34614 ft | 571 kts | 93° |
| 2026-05-04 10:37 | 38.09302 | 157.89263 | 34604 ft | 571 kts | 93° |
| 2026-05-04 10:37 | 38.08944 | 157.99334 | 34618 ft | 571 kts | 93° |
| 2026-05-04 10:39 | 38.07623 | 158.34560 | 34621 ft | 572 kts | 93° |
| 2026-05-04 10:40 | 38.07224 | 158.44659 | 34614 ft | 572 kts | 93° |
| 2026-05-04 10:40 | 38.06818 | 158.54763 | 34609 ft | 574 kts | 93° |
| 2026-05-04 10:41 | 38.06399 | 158.64867 | 34595 ft | 573 kts | 93° |
| 2026-05-04 10:41 | 38.05972 | 158.74991 | 34606 ft | 574 kts | 93° |
| 2026-05-04 10:42 | 38.05539 | 158.85112 | 34607 ft | 574 kts | 93° |
| 2026-05-04 10:42 | 38.05100 | 158.95166 | 34601 ft | 574 kts | 93° |
| 2026-05-04 10:43 | 38.04650 | 159.05301 | 34614 ft | 574 kts | 93° |
| 2026-05-04 10:45 | 38.02759 | 159.45753 | 34716 ft | 574 kts | 93° |
| 2026-05-04 10:45 | 38.02269 | 159.55803 | 34743 ft | 574 kts | 93° |
| 2026-05-04 10:46 | 38.01764 | 159.65924 | 34769 ft | 574 kts | 94° |
| 2026-05-04 10:46 | 38.01249 | 159.76017 | 34805 ft | 573 kts | 94° |
| 2026-05-04 10:47 | 38.00729 | 159.86098 | 34829 ft | 573 kts | 94° |
| 2026-05-04 10:47 | 38.00205 | 159.96174 | 34844 ft | 574 kts | 93° |
| 2026-05-04 10:47 | 38.00206 | 160.01246 | 35013 ft | 576 kts | 86° |
| 2026-05-04 10:49 | 38.03049 | 160.36223 | 36827 ft | 566 kts | 82° |
| 2026-05-04 10:50 | 38.03862 | 160.46141 | 36840 ft | 565 kts | 82° |
| 2026-05-04 10:52 | 38.07028 | 160.85821 | 36851 ft | 566 kts | 82° |
| 2026-05-04 10:52 | 38.07800 | 160.95767 | 36840 ft | 566 kts | 82° |
| 2026-05-04 10:54 | 38.10684 | 161.33907 | 36855 ft | 566 kts | 82° |
| 2026-05-04 10:56 | 38.13551 | 161.73593 | 36846 ft | 564 kts | 82° |
| 2026-05-04 10:57 | 38.14245 | 161.83497 | 36858 ft | 562 kts | 82° |
| 2026-05-04 10:57 | 38.14932 | 161.93407 | 36851 ft | 563 kts | 82° |
| 2026-05-04 10:58 | 38.15607 | 162.03269 | 36853 ft | 563 kts | 82° |
| 2026-05-04 10:58 | 38.16279 | 162.13203 | 36861 ft | 563 kts | 82° |
| 2026-05-04 10:59 | 38.16936 | 162.23065 | 36848 ft | 564 kts | 82° |
| 2026-05-04 10:59 | 38.17589 | 162.32991 | 36857 ft | 563 kts | 82° |
| 2026-05-04 11:00 | 38.18237 | 162.42948 | 36860 ft | 565 kts | 82° |
| 2026-05-04 11:02 | 38.20743 | 162.82812 | 36854 ft | 567 kts | 82° |
| 2026-05-04 11:05 | 38.25087 | 163.57860 | 36856 ft | 567 kts | 83° |
| 2026-05-04 11:06 | 38.25628 | 163.67831 | 36866 ft | 567 kts | 83° |
| 2026-05-04 11:06 | 38.26164 | 163.77847 | 36866 ft | 567 kts | 83° |
| 2026-05-04 11:10 | 38.29668 | 164.47821 | 36886 ft | 568 kts | 83° |
| 2026-05-04 11:12 | 38.31489 | 164.88015 | 36891 ft | 569 kts | 83° |
| 2026-05-04 11:12 | 38.31924 | 164.98095 | 36895 ft | 570 kts | 83° |
| 2026-05-04 11:13 | 38.32350 | 165.08173 | 36885 ft | 569 kts | 83° |
| 2026-05-04 11:13 | 38.32765 | 165.18198 | 36896 ft | 571 kts | 83° |
| 2026-05-04 11:14 | 38.33173 | 165.28301 | 36887 ft | 570 kts | 83° |
| 2026-05-04 11:16 | 38.34718 | 165.68529 | 36891 ft | 567 kts | 83° |
| 2026-05-04 11:16 | 38.35083 | 165.78576 | 36895 ft | 567 kts | 83° |
| 2026-05-04 11:17 | 38.35442 | 165.88633 | 36884 ft | 567 kts | 83° |
| 2026-05-04 11:19 | 38.36780 | 166.28847 | 36898 ft | 569 kts | 84° |
| 2026-05-04 11:19 | 38.37092 | 166.38868 | 36886 ft | 569 kts | 84° |
| 2026-05-04 11:20 | 38.37398 | 166.48968 | 36896 ft | 569 kts | 84° |
| 2026-05-04 11:20 | 38.37695 | 166.59076 | 36895 ft | 571 kts | 84° |
| 2026-05-04 11:22 | 38.38798 | 166.99557 | 36942 ft | 572 kts | 84° |
| 2026-05-04 11:23 | 38.39053 | 167.09706 | 36931 ft | 572 kts | 84° |
| 2026-05-04 11:25 | 38.39874 | 167.45134 | 36941 ft | 571 kts | 84° |
| 2026-05-04 11:25 | 38.40088 | 167.55271 | 36937 ft | 571 kts | 84° |
| 2026-05-04 11:27 | 38.40947 | 168.00695 | 36943 ft | 570 kts | 84° |
| 2026-05-04 11:28 | 38.41114 | 168.10819 | 36936 ft | 570 kts | 84° |
| 2026-05-04 11:28 | 38.41273 | 168.20946 | 36934 ft | 571 kts | 84° |
| 2026-05-04 11:29 | 38.41422 | 168.31078 | 36944 ft | 571 kts | 84° |
| 2026-05-04 11:29 | 38.41564 | 168.41217 | 36932 ft | 572 kts | 84° |
| 2026-05-04 11:33 | 38.42307 | 169.12210 | 36944 ft | 572 kts | 84° |
| 2026-05-04 11:33 | 38.42380 | 169.22384 | 36932 ft | 573 kts | 84° |
| 2026-05-04 11:34 | 38.42441 | 169.32540 | 36942 ft | 572 kts | 84° |
| 2026-05-04 11:34 | 38.42492 | 169.42668 | 36938 ft | 570 kts | 84° |
| 2026-05-04 11:35 | 38.42538 | 169.52728 | 36932 ft | 570 kts | 84° |
| 2026-05-04 11:35 | 38.42575 | 169.62843 | 36943 ft | 569 kts | 84° |
| 2026-05-04 11:36 | 38.42603 | 169.72933 | 36933 ft | 568 kts | 84° |
| 2026-05-04 11:36 | 38.42620 | 169.81319 | 36935 ft | 568 kts | 84° |
| 2026-05-04 11:37 | 38.42633 | 169.93047 | 36942 ft | 569 kts | 84° |
| 2026-05-04 11:37 | 38.42634 | 170.01448 | 36931 ft | 568 kts | 84° |
| 2026-05-04 11:38 | 38.42628 | 170.11517 | 36939 ft | 568 kts | 84° |
| 2026-05-04 11:38 | 38.42615 | 170.21623 | 36940 ft | 569 kts | 84° |
| 2026-05-04 11:39 | 38.42593 | 170.31725 | 36930 ft | 569 kts | 84° |
| 2026-05-04 11:41 | 38.42443 | 170.67125 | 36942 ft | 573 kts | 84° |
| 2026-05-04 11:41 | 38.42381 | 170.77300 | 36936 ft | 573 kts | 84° |
| 2026-05-04 11:42 | 38.42311 | 170.87477 | 36932 ft | 574 kts | 84° |
| 2026-05-04 11:42 | 38.42229 | 170.97613 | 36943 ft | 575 kts | 84° |
| 2026-05-04 11:43 | 38.42140 | 171.07825 | 36932 ft | 575 kts | 84° |
| 2026-05-04 11:43 | 38.42042 | 171.18025 | 36937 ft | 575 kts | 84° |
| 2026-05-04 11:44 | 38.41936 | 171.28223 | 36940 ft | 575 kts | 84° |
| 2026-05-04 11:44 | 38.41821 | 171.38357 | 36927 ft | 575 kts | 84° |
| 2026-05-04 11:45 | 38.41697 | 171.48565 | 36938 ft | 575 kts | 84° |
| 2026-05-04 11:45 | 38.41562 | 171.58747 | 36935 ft | 572 kts | 84° |
| 2026-05-04 11:46 | 38.41419 | 171.68908 | 36928 ft | 573 kts | 84° |
| 2026-05-04 11:46 | 38.41270 | 171.79008 | 36940 ft | 573 kts | 84° |
| 2026-05-04 11:47 | 38.41112 | 171.89175 | 36929 ft | 572 kts | 85° |
| 2026-05-04 11:47 | 38.40945 | 171.99336 | 36933 ft | 572 kts | 85° |
| 2026-05-04 11:48 | 38.40770 | 172.09474 | 36938 ft | 572 kts | 84° |
| 2026-05-04 11:48 | 38.40586 | 172.19639 | 36927 ft | 573 kts | 85° |
| 2026-05-04 11:49 | 38.40392 | 172.29810 | 36938 ft | 574 kts | 85° |
| 2026-05-04 11:49 | 38.40189 | 172.39943 | 36933 ft | 575 kts | 85° |
| 2026-05-04 11:50 | 38.39977 | 172.50147 | 36930 ft | 575 kts | 85° |
| 2026-05-04 11:50 | 38.39755 | 172.60349 | 36940 ft | 576 kts | 85° |
| 2026-05-04 11:51 | 38.39522 | 172.70593 | 36928 ft | 578 kts | 85° |
| 2026-05-04 11:51 | 38.39281 | 172.80868 | 36935 ft | 578 kts | 85° |
| 2026-05-04 11:52 | 38.39034 | 172.91062 | 36936 ft | 580 kts | 85° |
| 2026-05-04 11:52 | 38.38774 | 173.01348 | 36935 ft | 579 kts | 85° |
| 2026-05-04 11:53 | 38.38505 | 173.11620 | 36949 ft | 580 kts | 85° |
| 2026-05-04 11:53 | 38.38229 | 173.21885 | 36933 ft | 579 kts | 85° |
| 2026-05-04 11:55 | 38.37039 | 173.62810 | 36945 ft | 577 kts | 86° |
| 2026-05-04 11:56 | 38.36720 | 173.73034 | 36937 ft | 577 kts | 86° |
| 2026-05-04 11:56 | 38.36389 | 173.83247 | 36937 ft | 576 kts | 86° |
| 2026-05-04 11:57 | 38.36053 | 173.93394 | 36945 ft | 576 kts | 86° |
| 2026-05-04 11:57 | 38.35708 | 174.03612 | 36933 ft | 575 kts | 86° |
| 2026-05-04 11:58 | 38.35355 | 174.13799 | 36940 ft | 576 kts | 86° |
| 2026-05-04 11:58 | 38.34991 | 174.24010 | 36969 ft | 576 kts | 86° |
| 2026-05-04 11:59 | 38.34618 | 174.34243 | 36988 ft | 579 kts | 86° |